sensor_id;sensor_type;location;lat;lon;timestamp;P1;durP1;ratioP1;P2;durP2;ratioP2
68593;SDS011;55563;52.416;13.548;2023-04-06T00:00:49;7.82;;;4.75;;
68593;SDS011;55563;52.416;13.548;2023-04-06T00:02:51;7.75;;;4.72;;
68593;SDS011;55563;52.416;13.548;2023-04-06T00:04:52;9.30;;;4.70;;
68593;SDS011;55563;52.416;13.548;2023-04-06T00:06:53;7.72;;;4.43;;
68593;SDS011;55563;52.416;13.548;2023-04-06T00:08:54;8.57;;;4.85;;
68593;SDS011;55563;52.416;13.548;2023-04-06T00:10:56;8.55;;;4.82;;
68593;SDS011;55563;52.416;13.548;2023-04-06T00:12:57;8.23;;;4.60;;
68593;SDS011;55563;52.416;13.548;2023-04-06T00:14:59;7.95;;;4.63;;
68593;SDS011;55563;52.416;13.548;2023-04-06T00:17:01;8.55;;;4.63;;
68593;SDS011;55563;52.416;13.548;2023-04-06T00:19:02;7.55;;;4.68;;
68593;SDS011;55563;52.416;13.548;2023-04-06T00:21:03;8.68;;;4.80;;
68593;SDS011;55563;52.416;13.548;2023-04-06T00:23:04;8.20;;;4.63;;
68593;SDS011;55563;52.416;13.548;2023-04-06T00:25:05;8.43;;;5.05;;
68593;SDS011;55563;52.416;13.548;2023-04-06T00:27:06;7.95;;;4.60;;
68593;SDS011;55563;52.416;13.548;2023-04-06T00:29:07;6.80;;;4.57;;
68593;SDS011;55563;52.416;13.548;2023-04-06T00:31:08;7.25;;;4.47;;
68593;SDS011;55563;52.416;13.548;2023-04-06T00:33:08;7.40;;;4.47;;
68593;SDS011;55563;52.416;13.548;2023-04-06T00:35:09;8.00;;;4.70;;
68593;SDS011;55563;52.416;13.548;2023-04-06T00:37:11;7.40;;;4.18;;
68593;SDS011;55563;52.416;13.548;2023-04-06T00:39:12;6.70;;;4.35;;
68593;SDS011;55563;52.416;13.548;2023-04-06T00:41:13;7.32;;;4.38;;
68593;SDS011;55563;52.416;13.548;2023-04-06T00:43:14;7.35;;;4.78;;
68593;SDS011;55563;52.416;13.548;2023-04-06T00:45:15;6.60;;;4.00;;
68593;SDS011;55563;52.416;13.548;2023-04-06T00:47:17;6.50;;;4.25;;
68593;SDS011;55563;52.416;13.548;2023-04-06T00:49:18;8.07;;;4.07;;
68593;SDS011;55563;52.416;13.548;2023-04-06T00:51:19;7.50;;;4.18;;
68593;SDS011;55563;52.416;13.548;2023-04-06T00:53:20;6.85;;;4.13;;
68593;SDS011;55563;52.416;13.548;2023-04-06T00:55:22;6.88;;;4.30;;
68593;SDS011;55563;52.416;13.548;2023-04-06T00:57:23;7.13;;;4.07;;
68593;SDS011;55563;52.416;13.548;2023-04-06T00:59:28;7.13;;;4.22;;
68593;SDS011;55563;52.416;13.548;2023-04-06T01:01:31;7.57;;;4.20;;
68593;SDS011;55563;52.416;13.548;2023-04-06T01:03:37;6.25;;;3.80;;
68593;SDS011;55563;52.416;13.548;2023-04-06T01:05:38;5.85;;;4.10;;
68593;SDS011;55563;52.416;13.548;2023-04-06T01:07:45;6.32;;;3.70;;
68593;SDS011;55563;52.416;13.548;2023-04-06T01:09:52;6.70;;;3.88;;
68593;SDS011;55563;52.416;13.548;2023-04-06T01:11:58;6.30;;;4.03;;
68593;SDS011;55563;52.416;13.548;2023-04-06T01:14:03;6.88;;;4.00;;
68593;SDS011;55563;52.416;13.548;2023-04-06T01:16:18;6.30;;;3.72;;
68593;SDS011;55563;52.416;13.548;2023-04-06T01:18:31;7.07;;;4.15;;
68593;SDS011;55563;52.416;13.548;2023-04-06T01:20:45;6.20;;;3.75;;
68593;SDS011;55563;52.416;13.548;2023-04-06T01:22:46;6.60;;;3.95;;
68593;SDS011;55563;52.416;13.548;2023-04-06T01:24:47;5.95;;;3.60;;
68593;SDS011;55563;52.416;13.548;2023-04-06T01:26:55;6.53;;;3.95;;
68593;SDS011;55563;52.416;13.548;2023-04-06T01:28:57;6.63;;;4.00;;
68593;SDS011;55563;52.416;13.548;2023-04-06T01:31:01;6.35;;;3.97;;
68593;SDS011;55563;52.416;13.548;2023-04-06T01:33:14;6.68;;;3.80;;
68593;SDS011;55563;52.416;13.548;2023-04-06T01:35:32;7.68;;;3.80;;
68593;SDS011;55563;52.416;13.548;2023-04-06T01:37:44;7.80;;;3.83;;
68593;SDS011;55563;52.416;13.548;2023-04-06T01:39:50;5.78;;;3.75;;
68593;SDS011;55563;52.416;13.548;2023-04-06T01:42:00;5.35;;;3.58;;
68593;SDS011;55563;52.416;13.548;2023-04-06T01:46:04;5.65;;;3.53;;
68593;SDS011;55563;52.416;13.548;2023-04-06T01:48:10;6.50;;;3.65;;
68593;SDS011;55563;52.416;13.548;2023-04-06T01:50:10;6.07;;;3.92;;
68593;SDS011;55563;52.416;13.548;2023-04-06T01:52:17;7.03;;;3.92;;
68593;SDS011;55563;52.416;13.548;2023-04-06T01:54:25;7.93;;;3.95;;
68593;SDS011;55563;52.416;13.548;2023-04-06T01:56:46;6.05;;;3.55;;
68593;SDS011;55563;52.416;13.548;2023-04-06T01:58:59;7.25;;;4.00;;
68593;SDS011;55563;52.416;13.548;2023-04-06T02:01:06;6.70;;;4.00;;
68593;SDS011;55563;52.416;13.548;2023-04-06T02:03:20;6.50;;;3.72;;
68593;SDS011;55563;52.416;13.548;2023-04-06T02:05:24;5.88;;;3.92;;
68593;SDS011;55563;52.416;13.548;2023-04-06T02:07:28;5.78;;;3.88;;
68593;SDS011;55563;52.416;13.548;2023-04-06T02:09:29;7.88;;;3.90;;
68593;SDS011;55563;52.416;13.548;2023-04-06T02:11:30;6.95;;;4.30;;
68593;SDS011;55563;52.416;13.548;2023-04-06T02:13:31;5.30;;;3.58;;
68593;SDS011;55563;52.416;13.548;2023-04-06T02:15:32;6.20;;;4.00;;
68593;SDS011;55563;52.416;13.548;2023-04-06T02:17:33;7.35;;;4.30;;
68593;SDS011;55563;52.416;13.548;2023-04-06T02:19:33;5.60;;;3.72;;
68593;SDS011;55563;52.416;13.548;2023-04-06T02:21:34;6.30;;;3.75;;
68593;SDS011;55563;52.416;13.548;2023-04-06T02:23:35;5.45;;;3.45;;
68593;SDS011;55563;52.416;13.548;2023-04-06T02:25:36;5.82;;;3.08;;
68593;SDS011;55563;52.416;13.548;2023-04-06T02:27:37;5.63;;;3.50;;
68593;SDS011;55563;52.416;13.548;2023-04-06T02:29:37;4.88;;;3.40;;
68593;SDS011;55563;52.416;13.548;2023-04-06T02:31:38;6.05;;;3.75;;
68593;SDS011;55563;52.416;13.548;2023-04-06T02:33:40;5.28;;;3.35;;
68593;SDS011;55563;52.416;13.548;2023-04-06T02:35:43;5.55;;;3.50;;
68593;SDS011;55563;52.416;13.548;2023-04-06T02:37:46;5.57;;;3.60;;
68593;SDS011;55563;52.416;13.548;2023-04-06T02:39:47;6.22;;;3.63;;
68593;SDS011;55563;52.416;13.548;2023-04-06T02:41:47;5.30;;;3.30;;
68593;SDS011;55563;52.416;13.548;2023-04-06T02:43:53;5.15;;;3.30;;
68593;SDS011;55563;52.416;13.548;2023-04-06T02:46:06;5.05;;;3.10;;
68593;SDS011;55563;52.416;13.548;2023-04-06T02:48:11;4.60;;;3.08;;
68593;SDS011;55563;52.416;13.548;2023-04-06T02:50:12;6.50;;;3.35;;
68593;SDS011;55563;52.416;13.548;2023-04-06T02:52:21;5.00;;;3.40;;
68593;SDS011;55563;52.416;13.548;2023-04-06T02:54:21;5.78;;;2.95;;
68593;SDS011;55563;52.416;13.548;2023-04-06T02:56:22;4.75;;;2.92;;
68593;SDS011;55563;52.416;13.548;2023-04-06T02:58:25;5.25;;;3.10;;
68593;SDS011;55563;52.416;13.548;2023-04-06T03:00:29;3.85;;;2.92;;
68593;SDS011;55563;52.416;13.548;2023-04-06T03:02:30;4.03;;;2.80;;
68593;SDS011;55563;52.416;13.548;2023-04-06T03:04:38;5.10;;;2.92;;
68593;SDS011;55563;52.416;13.548;2023-04-06T03:06:47;7.45;;;3.10;;
68593;SDS011;55563;52.416;13.548;2023-04-06T03:08:58;4.85;;;3.13;;
68593;SDS011;55563;52.416;13.548;2023-04-06T03:10:59;6.55;;;2.88;;
68593;SDS011;55563;52.416;13.548;2023-04-06T03:13:07;5.00;;;3.08;;
68593;SDS011;55563;52.416;13.548;2023-04-06T03:15:26;4.68;;;3.00;;
68593;SDS011;55563;52.416;13.548;2023-04-06T03:17:36;3.42;;;2.67;;
68593;SDS011;55563;52.416;13.548;2023-04-06T03:19:42;4.85;;;3.10;;
68593;SDS011;55563;52.416;13.548;2023-04-06T03:21:44;4.95;;;2.80;;
68593;SDS011;55563;52.416;13.548;2023-04-06T03:23:46;4.13;;;3.00;;
68593;SDS011;55563;52.416;13.548;2023-04-06T03:25:48;4.78;;;3.08;;
68593;SDS011;55563;52.416;13.548;2023-04-06T03:27:52;4.75;;;2.80;;
68593;SDS011;55563;52.416;13.548;2023-04-06T03:29:54;4.65;;;3.10;;
68593;SDS011;55563;52.416;13.548;2023-04-06T03:32:02;4.13;;;2.90;;
68593;SDS011;55563;52.416;13.548;2023-04-06T03:34:08;4.60;;;2.80;;
68593;SDS011;55563;52.416;13.548;2023-04-06T03:36:10;4.82;;;3.25;;
68593;SDS011;55563;52.416;13.548;2023-04-06T03:38:14;4.88;;;3.08;;
68593;SDS011;55563;52.416;13.548;2023-04-06T03:40:16;4.97;;;3.15;;
68593;SDS011;55563;52.416;13.548;2023-04-06T03:42:16;4.18;;;3.20;;
68593;SDS011;55563;52.416;13.548;2023-04-06T03:44:24;6.18;;;3.30;;
68593;SDS011;55563;52.416;13.548;2023-04-06T03:46:25;4.75;;;3.10;;
68593;SDS011;55563;52.416;13.548;2023-04-06T03:48:29;4.85;;;2.97;;
68593;SDS011;55563;52.416;13.548;2023-04-06T03:50:34;4.50;;;2.72;;
68593;SDS011;55563;52.416;13.548;2023-04-06T03:52:35;5.15;;;3.10;;
68593;SDS011;55563;52.416;13.548;2023-04-06T03:54:36;4.15;;;2.83;;
68593;SDS011;55563;52.416;13.548;2023-04-06T03:56:37;5.22;;;2.92;;
68593;SDS011;55563;52.416;13.548;2023-04-06T03:58:38;5.85;;;3.05;;
68593;SDS011;55563;52.416;13.548;2023-04-06T04:00:39;4.55;;;2.75;;
68593;SDS011;55563;52.416;13.548;2023-04-06T04:02:41;5.25;;;3.05;;
68593;SDS011;55563;52.416;13.548;2023-04-06T04:04:42;3.75;;;2.50;;
68593;SDS011;55563;52.416;13.548;2023-04-06T04:06:42;5.18;;;2.80;;
68593;SDS011;55563;52.416;13.548;2023-04-06T04:08:43;3.88;;;2.83;;
68593;SDS011;55563;52.416;13.548;2023-04-06T04:10:45;3.90;;;2.90;;
68593;SDS011;55563;52.416;13.548;2023-04-06T04:12:47;3.78;;;2.80;;
68593;SDS011;55563;52.416;13.548;2023-04-06T04:14:47;4.10;;;2.85;;
68593;SDS011;55563;52.416;13.548;2023-04-06T04:16:49;3.92;;;2.72;;
68593;SDS011;55563;52.416;13.548;2023-04-06T04:18:49;4.35;;;2.78;;
68593;SDS011;55563;52.416;13.548;2023-04-06T04:20:50;5.43;;;2.97;;
68593;SDS011;55563;52.416;13.548;2023-04-06T04:22:54;4.35;;;2.75;;
68593;SDS011;55563;52.416;13.548;2023-04-06T04:24:55;5.45;;;2.83;;
68593;SDS011;55563;52.416;13.548;2023-04-06T04:26:56;4.82;;;2.83;;
68593;SDS011;55563;52.416;13.548;2023-04-06T04:28:57;3.67;;;2.53;;
68593;SDS011;55563;52.416;13.548;2023-04-06T04:30:58;4.75;;;2.95;;
68593;SDS011;55563;52.416;13.548;2023-04-06T04:32:59;3.80;;;2.67;;
68593;SDS011;55563;52.416;13.548;2023-04-06T04:34:59;4.43;;;2.80;;
68593;SDS011;55563;52.416;13.548;2023-04-06T04:37:11;4.70;;;3.08;;
68593;SDS011;55563;52.416;13.548;2023-04-06T04:39:21;4.10;;;2.83;;
68593;SDS011;55563;52.416;13.548;2023-04-06T04:41:30;5.47;;;2.97;;
68593;SDS011;55563;52.416;13.548;2023-04-06T04:43:32;4.72;;;3.13;;
68593;SDS011;55563;52.416;13.548;2023-04-06T04:45:35;5.20;;;2.80;;
68593;SDS011;55563;52.416;13.548;2023-04-06T04:47:47;4.28;;;2.95;;
68593;SDS011;55563;52.416;13.548;2023-04-06T04:49:50;4.78;;;2.88;;
68593;SDS011;55563;52.416;13.548;2023-04-06T04:51:56;4.38;;;2.70;;
68593;SDS011;55563;52.416;13.548;2023-04-06T04:54:04;4.85;;;2.80;;
68593;SDS011;55563;52.416;13.548;2023-04-06T04:56:06;5.03;;;2.85;;
68593;SDS011;55563;52.416;13.548;2023-04-06T04:58:07;4.43;;;2.92;;
68593;SDS011;55563;52.416;13.548;2023-04-06T05:00:23;4.80;;;2.70;;
68593;SDS011;55563;52.416;13.548;2023-04-06T05:02:27;5.88;;;3.08;;
68593;SDS011;55563;52.416;13.548;2023-04-06T05:04:48;4.63;;;2.88;;
68593;SDS011;55563;52.416;13.548;2023-04-06T05:07:10;6.38;;;3.00;;
68593;SDS011;55563;52.416;13.548;2023-04-06T05:09:13;4.53;;;2.88;;
68593;SDS011;55563;52.416;13.548;2023-04-06T05:11:16;4.47;;;3.10;;
68593;SDS011;55563;52.416;13.548;2023-04-06T05:13:22;4.32;;;3.03;;
68593;SDS011;55563;52.416;13.548;2023-04-06T05:15:25;4.38;;;2.90;;
68593;SDS011;55563;52.416;13.548;2023-04-06T05:17:30;4.32;;;2.70;;
68593;SDS011;55563;52.416;13.548;2023-04-06T05:19:31;4.25;;;2.80;;
68593;SDS011;55563;52.416;13.548;2023-04-06T05:21:31;5.13;;;3.10;;
68593;SDS011;55563;52.416;13.548;2023-04-06T05:23:37;5.40;;;3.17;;
68593;SDS011;55563;52.416;13.548;2023-04-06T05:25:38;5.07;;;3.20;;
68593;SDS011;55563;52.416;13.548;2023-04-06T05:27:48;7.10;;;3.75;;
68593;SDS011;55563;52.416;13.548;2023-04-06T05:30:02;6.18;;;3.28;;
68593;SDS011;55563;52.416;13.548;2023-04-06T05:32:07;5.65;;;3.45;;
68593;SDS011;55563;52.416;13.548;2023-04-06T05:34:09;6.63;;;3.35;;
68593;SDS011;55563;52.416;13.548;2023-04-06T05:36:11;8.90;;;3.40;;
68593;SDS011;55563;52.416;13.548;2023-04-06T05:38:16;5.30;;;3.30;;
68593;SDS011;55563;52.416;13.548;2023-04-06T05:40:17;6.07;;;3.45;;
68593;SDS011;55563;52.416;13.548;2023-04-06T05:42:18;5.53;;;3.33;;
68593;SDS011;55563;52.416;13.548;2023-04-06T05:44:29;10.10;;;3.40;;
68593;SDS011;55563;52.416;13.548;2023-04-06T05:46:39;7.05;;;3.78;;
68593;SDS011;55563;52.416;13.548;2023-04-06T05:48:44;6.47;;;3.80;;
68593;SDS011;55563;52.416;13.548;2023-04-06T05:50:48;6.75;;;3.83;;
68593;SDS011;55563;52.416;13.548;2023-04-06T05:52:53;5.15;;;3.75;;
68593;SDS011;55563;52.416;13.548;2023-04-06T05:55:00;5.80;;;3.67;;
68593;SDS011;55563;52.416;13.548;2023-04-06T05:57:01;6.35;;;3.53;;
68593;SDS011;55563;52.416;13.548;2023-04-06T05:59:03;5.53;;;3.40;;
68593;SDS011;55563;52.416;13.548;2023-04-06T06:01:05;6.68;;;3.17;;
68593;SDS011;55563;52.416;13.548;2023-04-06T06:03:12;5.72;;;3.83;;
68593;SDS011;55563;52.416;13.548;2023-04-06T06:05:18;4.90;;;3.22;;
68593;SDS011;55563;52.416;13.548;2023-04-06T06:07:19;5.15;;;3.55;;
68593;SDS011;55563;52.416;13.548;2023-04-06T06:09:29;5.57;;;3.40;;
68593;SDS011;55563;52.416;13.548;2023-04-06T06:11:39;6.07;;;3.33;;
68593;SDS011;55563;52.416;13.548;2023-04-06T06:13:42;6.72;;;3.85;;
68593;SDS011;55563;52.416;13.548;2023-04-06T06:15:43;6.75;;;3.88;;
68593;SDS011;55563;52.416;13.548;2023-04-06T06:17:44;4.75;;;3.38;;
68593;SDS011;55563;52.416;13.548;2023-04-06T06:19:45;5.03;;;3.50;;
68593;SDS011;55563;52.416;13.548;2023-04-06T06:21:46;7.18;;;3.58;;
68593;SDS011;55563;52.416;13.548;2023-04-06T06:23:46;8.07;;;3.65;;
68593;SDS011;55563;52.416;13.548;2023-04-06T06:25:51;5.20;;;3.40;;
68593;SDS011;55563;52.416;13.548;2023-04-06T06:27:54;5.93;;;3.60;;
68593;SDS011;55563;52.416;13.548;2023-04-06T06:29:55;5.88;;;3.60;;
68593;SDS011;55563;52.416;13.548;2023-04-06T06:31:57;5.88;;;3.80;;
68593;SDS011;55563;52.416;13.548;2023-04-06T06:33:58;4.93;;;3.45;;
68593;SDS011;55563;52.416;13.548;2023-04-06T06:35:59;4.97;;;3.47;;
68593;SDS011;55563;52.416;13.548;2023-04-06T06:40:02;10.23;;;5.45;;
68593;SDS011;55563;52.416;13.548;2023-04-06T06:42:05;6.05;;;3.42;;
68593;SDS011;55563;52.416;13.548;2023-04-06T06:46:26;3.97;;;2.70;;
68593;SDS011;55563;52.416;13.548;2023-04-06T06:48:27;4.18;;;2.70;;
68593;SDS011;55563;52.416;13.548;2023-04-06T06:50:28;3.17;;;2.08;;
68593;SDS011;55563;52.416;13.548;2023-04-06T06:52:28;2.67;;;2.10;;
68593;SDS011;55563;52.416;13.548;2023-04-06T06:54:29;2.88;;;1.98;;
68593;SDS011;55563;52.416;13.548;2023-04-06T06:56:30;4.93;;;2.58;;
68593;SDS011;55563;52.416;13.548;2023-04-06T06:58:31;4.47;;;2.72;;
68593;SDS011;55563;52.416;13.548;2023-04-06T07:00:33;3.92;;;2.60;;
68593;SDS011;55563;52.416;13.548;2023-04-06T07:02:35;4.28;;;2.38;;
68593;SDS011;55563;52.416;13.548;2023-04-06T07:04:36;5.30;;;2.63;;
68593;SDS011;55563;52.416;13.548;2023-04-06T07:06:37;3.22;;;2.28;;
68593;SDS011;55563;52.416;13.548;2023-04-06T07:08:38;2.67;;;1.90;;
68593;SDS011;55563;52.416;13.548;2023-04-06T07:10:38;4.28;;;2.40;;
68593;SDS011;55563;52.416;13.548;2023-04-06T07:12:39;3.25;;;2.30;;
68593;SDS011;55563;52.416;13.548;2023-04-06T07:14:50;3.75;;;2.55;;
68593;SDS011;55563;52.416;13.548;2023-04-06T07:16:51;3.22;;;2.22;;
68593;SDS011;55563;52.416;13.548;2023-04-06T07:18:52;3.88;;;2.25;;
68593;SDS011;55563;52.416;13.548;2023-04-06T07:20:53;4.18;;;2.40;;
68593;SDS011;55563;52.416;13.548;2023-04-06T07:22:54;3.75;;;2.72;;
68593;SDS011;55563;52.416;13.548;2023-04-06T07:24:55;3.78;;;2.55;;
68593;SDS011;55563;52.416;13.548;2023-04-06T07:26:55;5.82;;;2.75;;
68593;SDS011;55563;52.416;13.548;2023-04-06T07:28:57;4.13;;;2.70;;
68593;SDS011;55563;52.416;13.548;2023-04-06T07:30:59;3.50;;;2.40;;
68593;SDS011;55563;52.416;13.548;2023-04-06T07:33:00;2.92;;;2.00;;
68593;SDS011;55563;52.416;13.548;2023-04-06T07:35:02;4.15;;;2.40;;
68593;SDS011;55563;52.416;13.548;2023-04-06T07:37:03;3.08;;;2.25;;
68593;SDS011;55563;52.416;13.548;2023-04-06T07:39:05;4.28;;;2.50;;
68593;SDS011;55563;52.416;13.548;2023-04-06T07:41:05;3.97;;;2.60;;
68593;SDS011;55563;52.416;13.548;2023-04-06T07:43:07;5.82;;;2.67;;
68593;SDS011;55563;52.416;13.548;2023-04-06T07:45:08;3.78;;;2.22;;
68593;SDS011;55563;52.416;13.548;2023-04-06T07:47:09;3.83;;;2.10;;
68593;SDS011;55563;52.416;13.548;2023-04-06T07:49:09;3.33;;;2.00;;
68593;SDS011;55563;52.416;13.548;2023-04-06T07:51:10;3.38;;;1.98;;
68593;SDS011;55563;52.416;13.548;2023-04-06T07:53:16;3.28;;;2.20;;
68593;SDS011;55563;52.416;13.548;2023-04-06T07:55:18;3.85;;;1.92;;
68593;SDS011;55563;52.416;13.548;2023-04-06T07:57:19;3.35;;;2.13;;
68593;SDS011;55563;52.416;13.548;2023-04-06T07:59:19;2.50;;;1.85;;
68593;SDS011;55563;52.416;13.548;2023-04-06T08:01:20;2.10;;;1.80;;
68593;SDS011;55563;52.416;13.548;2023-04-06T08:03:21;4.03;;;2.13;;
68593;SDS011;55563;52.416;13.548;2023-04-06T08:05:25;3.22;;;2.00;;
68593;SDS011;55563;52.416;13.548;2023-04-06T08:07:26;3.38;;;1.88;;
68593;SDS011;55563;52.416;13.548;2023-04-06T08:09:27;3.90;;;1.80;;
68593;SDS011;55563;52.416;13.548;2023-04-06T08:11:28;5.40;;;2.00;;
68593;SDS011;55563;52.416;13.548;2023-04-06T08:13:29;2.97;;;2.08;;
68593;SDS011;55563;52.416;13.548;2023-04-06T08:15:29;2.38;;;1.80;;
68593;SDS011;55563;52.416;13.548;2023-04-06T08:17:31;2.42;;;1.65;;
68593;SDS011;55563;52.416;13.548;2023-04-06T08:19:32;2.72;;;1.73;;
68593;SDS011;55563;52.416;13.548;2023-04-06T08:21:33;2.83;;;1.77;;
68593;SDS011;55563;52.416;13.548;2023-04-06T08:23:33;3.20;;;1.60;;
68593;SDS011;55563;52.416;13.548;2023-04-06T08:25:35;2.40;;;1.73;;
68593;SDS011;55563;52.416;13.548;2023-04-06T08:27:36;2.03;;;1.55;;
68593;SDS011;55563;52.416;13.548;2023-04-06T08:29:37;2.30;;;1.48;;
68593;SDS011;55563;52.416;13.548;2023-04-06T08:31:38;2.40;;;1.55;;
68593;SDS011;55563;52.416;13.548;2023-04-06T08:33:38;2.97;;;1.60;;
68593;SDS011;55563;52.416;13.548;2023-04-06T08:35:39;4.05;;;1.70;;
68593;SDS011;55563;52.416;13.548;2023-04-06T08:37:40;4.50;;;2.28;;
68593;SDS011;55563;52.416;13.548;2023-04-06T08:39:41;2.30;;;1.60;;
68593;SDS011;55563;52.416;13.548;2023-04-06T08:41:42;2.50;;;1.60;;
68593;SDS011;55563;52.416;13.548;2023-04-06T08:43:44;1.83;;;1.38;;
68593;SDS011;55563;52.416;13.548;2023-04-06T08:45:48;2.58;;;1.65;;
68593;SDS011;55563;52.416;13.548;2023-04-06T08:47:50;2.88;;;1.63;;
68593;SDS011;55563;52.416;13.548;2023-04-06T08:49:52;1.95;;;1.40;;
68593;SDS011;55563;52.416;13.548;2023-04-06T08:51:54;3.03;;;1.30;;
68593;SDS011;55563;52.416;13.548;2023-04-06T08:53:56;1.90;;;1.35;;
68593;SDS011;55563;52.416;13.548;2023-04-06T08:55:58;2.33;;;1.40;;
68593;SDS011;55563;52.416;13.548;2023-04-06T08:58:00;1.75;;;1.33;;
68593;SDS011;55563;52.416;13.548;2023-04-06T09:02:03;1.55;;;1.20;;
68593;SDS011;55563;52.416;13.548;2023-04-06T09:04:06;1.95;;;1.40;;
68593;SDS011;55563;52.416;13.548;2023-04-06T09:06:10;2.17;;;1.33;;
68593;SDS011;55563;52.416;13.548;2023-04-06T09:08:12;2.92;;;1.42;;
68593;SDS011;55563;52.416;13.548;2023-04-06T09:10:13;1.70;;;1.40;;
68593;SDS011;55563;52.416;13.548;2023-04-06T09:12:31;2.03;;;1.50;;
68593;SDS011;55563;52.416;13.548;2023-04-06T09:14:33;1.83;;;1.20;;
68593;SDS011;55563;52.416;13.548;2023-04-06T09:16:38;1.20;;;0.82;;
68593;SDS011;55563;52.416;13.548;2023-04-06T09:18:41;1.63;;;1.30;;
68593;SDS011;55563;52.416;13.548;2023-04-06T09:22:43;2.08;;;1.33;;
68593;SDS011;55563;52.416;13.548;2023-04-06T09:24:45;2.72;;;1.60;;
68593;SDS011;55563;52.416;13.548;2023-04-06T09:26:47;2.53;;;1.20;;
68593;SDS011;55563;52.416;13.548;2023-04-06T09:28:50;2.15;;;1.30;;
68593;SDS011;55563;52.416;13.548;2023-04-06T09:30:51;0.80;;;0.80;;
68593;SDS011;55563;52.416;13.548;2023-04-06T09:32:53;1.58;;;1.17;;
68593;SDS011;55563;52.416;13.548;2023-04-06T09:35:05;1.20;;;0.90;;
68593;SDS011;55563;52.416;13.548;2023-04-06T09:37:22;1.40;;;1.13;;
68593;SDS011;55563;52.416;13.548;2023-04-06T09:39:22;1.70;;;1.10;;
68593;SDS011;55563;52.416;13.548;2023-04-06T09:41:25;1.60;;;1.48;;
68593;SDS011;55563;52.416;13.548;2023-04-06T09:43:27;2.28;;;1.40;;
68593;SDS011;55563;52.416;13.548;2023-04-06T09:45:29;1.40;;;1.10;;
68593;SDS011;55563;52.416;13.548;2023-04-06T09:47:31;1.88;;;1.40;;
68593;SDS011;55563;52.416;13.548;2023-04-06T09:49:33;1.50;;;1.20;;
68593;SDS011;55563;52.416;13.548;2023-04-06T09:51:36;1.50;;;0.93;;
68593;SDS011;55563;52.416;13.548;2023-04-06T09:53:54;1.70;;;1.17;;
68593;SDS011;55563;52.416;13.548;2023-04-06T09:56:02;1.30;;;1.10;;
68593;SDS011;55563;52.416;13.548;2023-04-06T09:58:04;1.20;;;1.10;;
68593;SDS011;55563;52.416;13.548;2023-04-06T10:00:07;1.33;;;1.20;;
68593;SDS011;55563;52.416;13.548;2023-04-06T10:02:15;1.85;;;1.10;;
68593;SDS011;55563;52.416;13.548;2023-04-06T10:04:36;2.10;;;1.27;;
68593;SDS011;55563;52.416;13.548;2023-04-06T10:06:43;1.85;;;1.30;;
68593;SDS011;55563;52.416;13.548;2023-04-06T10:08:49;1.88;;;1.20;;
68593;SDS011;55563;52.416;13.548;2023-04-06T10:10:52;1.52;;;1.20;;
68593;SDS011;55563;52.416;13.548;2023-04-06T10:12:52;1.40;;;1.20;;
68593;SDS011;55563;52.416;13.548;2023-04-06T10:14:55;1.63;;;1.20;;
68593;SDS011;55563;52.416;13.548;2023-04-06T10:16:57;2.00;;;1.15;;
68593;SDS011;55563;52.416;13.548;2023-04-06T10:19:06;2.45;;;1.33;;
68593;SDS011;55563;52.416;13.548;2023-04-06T10:21:19;0.98;;;0.88;;
68593;SDS011;55563;52.416;13.548;2023-04-06T10:25:56;1.85;;;1.42;;
68593;SDS011;55563;52.416;13.548;2023-04-06T10:27:59;1.77;;;1.10;;
68593;SDS011;55563;52.416;13.548;2023-04-06T10:30:07;2.15;;;1.33;;
68593;SDS011;55563;52.416;13.548;2023-04-06T10:32:08;2.55;;;1.30;;
68593;SDS011;55563;52.416;13.548;2023-04-06T10:34:08;3.22;;;1.58;;
68593;SDS011;55563;52.416;13.548;2023-04-06T10:36:10;2.10;;;1.50;;
68593;SDS011;55563;52.416;13.548;2023-04-06T10:38:14;2.70;;;1.67;;
68593;SDS011;55563;52.416;13.548;2023-04-06T10:40:19;1.67;;;1.30;;
68593;SDS011;55563;52.416;13.548;2023-04-06T10:42:24;2.38;;;1.33;;
68593;SDS011;55563;52.416;13.548;2023-04-06T10:44:26;1.83;;;1.20;;
68593;SDS011;55563;52.416;13.548;2023-04-06T10:46:27;2.80;;;1.20;;
68593;SDS011;55563;52.416;13.548;2023-04-06T10:48:40;1.15;;;1.05;;
68593;SDS011;55563;52.416;13.548;2023-04-06T10:50:44;2.47;;;1.30;;
68593;SDS011;55563;52.416;13.548;2023-04-06T10:52:58;3.53;;;1.40;;
68593;SDS011;55563;52.416;13.548;2023-04-06T10:55:00;1.63;;;1.20;;
68593;SDS011;55563;52.416;13.548;2023-04-06T10:57:02;1.90;;;1.30;;
68593;SDS011;55563;52.416;13.548;2023-04-06T10:59:02;1.83;;;1.30;;
68593;SDS011;55563;52.416;13.548;2023-04-06T11:01:03;3.15;;;1.40;;
68593;SDS011;55563;52.416;13.548;2023-04-06T11:03:04;1.83;;;1.25;;
68593;SDS011;55563;52.416;13.548;2023-04-06T11:05:05;1.42;;;0.77;;
68593;SDS011;55563;52.416;13.548;2023-04-06T11:07:06;1.52;;;1.20;;
68593;SDS011;55563;52.416;13.548;2023-04-06T11:09:07;1.40;;;1.30;;
68593;SDS011;55563;52.416;13.548;2023-04-06T11:11:10;1.92;;;1.30;;
68593;SDS011;55563;52.416;13.548;2023-04-06T11:13:17;1.42;;;1.27;;
68593;SDS011;55563;52.416;13.548;2023-04-06T11:15:18;3.30;;;1.33;;
68593;SDS011;55563;52.416;13.548;2023-04-06T11:17:25;1.00;;;0.90;;
68593;SDS011;55563;52.416;13.548;2023-04-06T11:19:26;3.13;;;1.45;;
68593;SDS011;55563;52.416;13.548;2023-04-06T11:21:39;2.00;;;1.38;;
68593;SDS011;55563;52.416;13.548;2023-04-06T11:23:43;1.40;;;1.30;;
68593;SDS011;55563;52.416;13.548;2023-04-06T11:25:50;2.45;;;1.40;;
68593;SDS011;55563;52.416;13.548;2023-04-06T11:27:51;1.42;;;1.30;;
68593;SDS011;55563;52.416;13.548;2023-04-06T11:29:52;1.92;;;1.50;;
68593;SDS011;55563;52.416;13.548;2023-04-06T11:31:54;2.00;;;1.50;;
68593;SDS011;55563;52.416;13.548;2023-04-06T11:33:59;2.70;;;1.42;;
68593;SDS011;55563;52.416;13.548;2023-04-06T11:36:00;1.58;;;1.20;;
68593;SDS011;55563;52.416;13.548;2023-04-06T11:38:02;2.88;;;1.40;;
68593;SDS011;55563;52.416;13.548;2023-04-06T11:40:04;1.40;;;1.20;;
68593;SDS011;55563;52.416;13.548;2023-04-06T11:42:08;1.52;;;1.35;;
68593;SDS011;55563;52.416;13.548;2023-04-06T11:44:09;1.67;;;1.20;;
68593;SDS011;55563;52.416;13.548;2023-04-06T11:46:10;1.55;;;1.30;;
68593;SDS011;55563;52.416;13.548;2023-04-06T11:48:19;1.52;;;1.30;;
68593;SDS011;55563;52.416;13.548;2023-04-06T11:50:20;1.80;;;1.13;;
68593;SDS011;55563;52.416;13.548;2023-04-06T11:52:23;2.75;;;1.15;;
68593;SDS011;55563;52.416;13.548;2023-04-06T11:54:40;2.15;;;1.48;;
68593;SDS011;55563;52.416;13.548;2023-04-06T11:56:41;1.73;;;1.30;;
68593;SDS011;55563;52.416;13.548;2023-04-06T11:58:41;2.45;;;1.30;;
68593;SDS011;55563;52.416;13.548;2023-04-06T12:00:43;1.75;;;1.30;;
68593;SDS011;55563;52.416;13.548;2023-04-06T12:02:45;2.00;;;1.30;;
68593;SDS011;55563;52.416;13.548;2023-04-06T12:04:47;2.03;;;1.27;;
68593;SDS011;55563;52.416;13.548;2023-04-06T12:06:48;1.80;;;1.20;;
68593;SDS011;55563;52.416;13.548;2023-04-06T12:08:49;1.92;;;1.27;;
68593;SDS011;55563;52.416;13.548;2023-04-06T12:10:50;1.73;;;1.33;;
68593;SDS011;55563;52.416;13.548;2023-04-06T12:12:51;1.77;;;1.35;;
68593;SDS011;55563;52.416;13.548;2023-04-06T12:14:51;1.80;;;1.17;;
68593;SDS011;55563;52.416;13.548;2023-04-06T12:16:52;1.80;;;1.40;;
68593;SDS011;55563;52.416;13.548;2023-04-06T12:18:53;1.90;;;1.40;;
68593;SDS011;55563;52.416;13.548;2023-04-06T12:20:53;1.52;;;1.27;;
68593;SDS011;55563;52.416;13.548;2023-04-06T12:22:54;1.52;;;1.20;;
68593;SDS011;55563;52.416;13.548;2023-04-06T12:24:55;0.73;;;0.73;;